sensor_id;sensor_type;location;lat;lon;timestamp;pressure;altitude;pressure_sealevel;temperature;humidity
11049;BME280;5577;42.706;23.160;2023-02-02T00:00:31;94219.09;;;3.26;91.14
11049;BME280;5577;42.706;23.160;2023-02-02T00:03:16;94212.72;;;3.19;91.21
11049;BME280;5577;42.706;23.160;2023-02-02T00:06:00;94211.19;;;3.18;91.86
11049;BME280;5577;42.706;23.160;2023-02-02T00:08:44;94203.63;;;3.16;93.63
11049;BME280;5577;42.706;23.160;2023-02-02T00:11:28;94209.72;;;3.25;92.51
11049;BME280;5577;42.706;23.160;2023-02-02T00:14:13;94214.63;;;3.27;94.05
11049;BME280;5577;42.706;23.160;2023-02-02T00:16:57;94215.16;;;3.15;92.86
11049;BME280;5577;42.706;23.160;2023-02-02T00:19:41;94223.66;;;3.21;94.22
11049;BME280;5577;42.706;23.160;2023-02-02T00:22:25;94224.69;;;3.11;91.58
11049;BME280;5577;42.706;23.160;2023-02-02T00:25:10;94221.94;;;3.16;92.34
11049;BME280;5577;42.706;23.160;2023-02-02T00:27:55;94194.84;;;2.90;93.03
11049;BME280;5577;42.706;23.160;2023-02-02T00:30:39;94205.53;;;3.02;94.28
11049;BME280;5577;42.706;23.160;2023-02-02T00:33:23;94234.13;;;3.21;93.68
11049;BME280;5577;42.706;23.160;2023-02-02T00:36:07;94237.09;;;3.28;95.12
11049;BME280;5577;42.706;23.160;2023-02-02T00:38:51;94234.88;;;3.21;96.71
11049;BME280;5577;42.706;23.160;2023-02-02T00:41:36;94237.88;;;3.28;96.50
11049;BME280;5577;42.706;23.160;2023-02-02T00:44:20;94203.63;;;3.16;95.95
11049;BME280;5577;42.706;23.160;2023-02-02T00:47:23;94231.00;;;3.32;96.82
11049;BME280;5577;42.706;23.160;2023-02-02T00:50:08;94226.22;;;3.34;95.88
11049;BME280;5577;42.706;23.160;2023-02-02T00:52:52;94221.81;;;3.43;94.63
11049;BME280;5577;42.706;23.160;2023-02-02T00:55:36;94215.66;;;3.48;93.82
11049;BME280;5577;42.706;23.160;2023-02-02T00:58:20;94223.41;;;3.53;93.03
11049;BME280;5577;42.706;23.160;2023-02-02T01:01:04;94218.47;;;3.51;92.19
11049;BME280;5577;42.706;23.160;2023-02-02T01:03:49;94210.50;;;3.56;92.64
11049;BME280;5577;42.706;23.160;2023-02-02T01:06:33;94184.94;;;3.31;93.35
11049;BME280;5577;42.706;23.160;2023-02-02T01:09:17;94205.53;;;3.46;94.96
11049;BME280;5577;42.706;23.160;2023-02-02T01:12:01;94195.59;;;3.35;97.58
11049;BME280;5577;42.706;23.160;2023-02-02T01:14:45;94202.84;;;3.38;98.68
11049;BME280;5577;42.706;23.160;2023-02-02T01:17:29;94202.97;;;3.33;100.00
11049;BME280;5577;42.706;23.160;2023-02-02T01:20:18;94158.69;;;2.92;100.00
11049;BME280;5577;42.706;23.160;2023-02-02T01:23:02;94189.44;;;3.31;100.00
11049;BME280;5577;42.706;23.160;2023-02-02T01:25:58;94190.31;;;3.26;100.00
11049;BME280;5577;42.706;23.160;2023-02-02T01:28:44;94187.06;;;3.21;100.00
11049;BME280;5577;42.706;23.160;2023-02-02T01:31:29;94188.06;;;3.11;100.00
11049;BME280;5577;42.706;23.160;2023-02-02T01:34:12;94181.69;;;3.03;100.00
11049;BME280;5577;42.706;23.160;2023-02-02T01:36:56;94187.81;;;2.99;100.00
11049;BME280;5577;42.706;23.160;2023-02-02T01:39:40;94184.06;;;2.91;100.00
11049;BME280;5577;42.706;23.160;2023-02-02T01:42:25;94152.69;;;2.69;100.00
11049;BME280;5577;42.706;23.160;2023-02-02T01:48:03;94185.19;;;2.77;100.00
11049;BME280;5577;42.706;23.160;2023-02-02T01:50:49;94163.25;;;2.64;100.00
11049;BME280;5577;42.706;23.160;2023-02-02T01:53:36;94181.63;;;2.73;100.00
11049;BME280;5577;42.706;23.160;2023-02-02T01:56:28;94179.09;;;2.68;100.00
11049;BME280;5577;42.706;23.160;2023-02-02T01:59:14;94116.63;;;2.22;100.00
11049;BME280;5577;42.706;23.160;2023-02-02T02:02:00;94161.06;;;2.44;100.00
11049;BME280;5577;42.706;23.160;2023-02-02T02:04:46;94067.00;;;1.87;100.00
11049;BME280;5577;42.706;23.160;2023-02-02T02:07:31;94167.13;;;2.67;100.00
11049;BME280;5577;42.706;23.160;2023-02-02T02:10:16;94181.34;;;2.74;100.00
11049;BME280;5577;42.706;23.160;2023-02-02T02:13:03;94175.53;;;2.64;100.00
11049;BME280;5577;42.706;23.160;2023-02-02T02:15:58;94158.69;;;2.34;100.00
11049;BME280;5577;42.706;23.160;2023-02-02T02:19:22;94175.84;;;2.62;100.00
11049;BME280;5577;42.706;23.160;2023-02-02T02:22:15;94177.28;;;2.68;100.00
11049;BME280;5577;42.706;23.160;2023-02-02T02:32:04;94175.09;;;2.48;100.00
11049;BME280;5577;42.706;23.160;2023-02-02T02:35:13;94173.84;;;2.46;100.00
11049;BME280;5577;42.706;23.160;2023-02-02T02:41:13;94132.00;;;2.24;100.00
11049;BME280;5577;42.706;23.160;2023-02-02T02:44:06;94165.94;;;2.37;100.00
11049;BME280;5577;42.706;23.160;2023-02-02T02:46:51;94117.06;;;2.02;100.00
11049;BME280;5577;42.706;23.160;2023-02-02T02:49:43;94171.22;;;2.46;100.00
11049;BME280;5577;42.706;23.160;2023-02-02T02:52:28;94168.50;;;2.51;100.00
11049;BME280;5577;42.706;23.160;2023-02-02T02:55:12;94147.28;;;2.30;100.00
11049;BME280;5577;42.706;23.160;2023-02-02T02:58:08;94137.75;;;2.12;100.00
11049;BME280;5577;42.706;23.160;2023-02-02T03:01:08;94170.31;;;2.28;100.00
11049;BME280;5577;42.706;23.160;2023-02-02T03:04:06;94162.06;;;2.35;100.00
11049;BME280;5577;42.706;23.160;2023-02-02T03:06:59;94141.97;;;2.22;100.00
11049;BME280;5577;42.706;23.160;2023-02-02T03:09:49;94160.69;;;2.37;100.00
11049;BME280;5577;42.706;23.160;2023-02-02T03:12:45;94168.44;;;2.42;100.00
11049;BME280;5577;42.706;23.160;2023-02-02T03:15:30;94168.56;;;2.59;100.00
11049;BME280;5577;42.706;23.160;2023-02-02T03:18:16;94166.97;;;2.50;100.00
11049;BME280;5577;42.706;23.160;2023-02-02T03:21:02;94160.69;;;2.37;100.00
11049;BME280;5577;42.706;23.160;2023-02-02T03:23:46;94128.66;;;2.10;100.00
11049;BME280;5577;42.706;23.160;2023-02-02T03:26:30;94159.59;;;2.16;100.00
11049;BME280;5577;42.706;23.160;2023-02-02T03:29:15;94169.72;;;2.18;100.00
11049;BME280;5577;42.706;23.160;2023-02-02T03:32:00;94158.63;;;2.12;100.00
11049;BME280;5577;42.706;23.160;2023-02-02T03:34:44;94175.44;;;2.06;100.00
11049;BME280;5577;42.706;23.160;2023-02-02T03:37:28;94180.50;;;2.03;100.00
11049;BME280;5577;42.706;23.160;2023-02-02T03:40:12;94165.19;;;1.96;100.00
11049;BME280;5577;42.706;23.160;2023-02-02T03:42:56;94134.28;;;1.76;100.00
11049;BME280;5577;42.706;23.160;2023-02-02T03:45:40;94172.28;;;1.96;100.00
11049;BME280;5577;42.706;23.160;2023-02-02T03:48:25;94152.44;;;1.81;100.00
11049;BME280;5577;42.706;23.160;2023-02-02T03:51:12;94116.97;;;1.53;100.00
11049;BME280;5577;42.706;23.160;2023-02-02T03:53:56;94164.25;;;1.92;100.00
11049;BME280;5577;42.706;23.160;2023-02-02T03:56:40;94157.28;;;1.88;100.00
11049;BME280;5577;42.706;23.160;2023-02-02T03:59:24;94179.03;;;2.10;100.00
11049;BME280;5577;42.706;23.160;2023-02-02T04:02:08;94168.03;;;2.00;100.00
11049;BME280;5577;42.706;23.160;2023-02-02T04:04:52;94164.94;;;1.84;100.00
11049;BME280;5577;42.706;23.160;2023-02-02T04:07:36;94183.97;;;1.85;100.00
11049;BME280;5577;42.706;23.160;2023-02-02T04:10:20;94179.03;;;1.70;100.00
11049;BME280;5577;42.706;23.160;2023-02-02T04:13:04;94184.63;;;1.63;100.00
11049;BME280;5577;42.706;23.160;2023-02-02T04:15:55;94184.53;;;1.55;100.00
11049;BME280;5577;42.706;23.160;2023-02-02T04:18:40;94194.00;;;1.51;100.00
11049;BME280;5577;42.706;23.160;2023-02-02T04:21:24;94192.25;;;1.46;100.00
11049;BME280;5577;42.706;23.160;2023-02-02T04:24:12;94196.66;;;1.32;100.00
11049;BME280;5577;42.706;23.160;2023-02-02T04:26:56;94169.38;;;1.11;100.00
11049;BME280;5577;42.706;23.160;2023-02-02T04:29:40;94189.22;;;1.26;100.00
11049;BME280;5577;42.706;23.160;2023-02-02T04:32:24;94186.31;;;1.27;100.00
11049;BME280;5577;42.706;23.160;2023-02-02T04:35:08;94169.78;;;1.18;100.00
11049;BME280;5577;42.706;23.160;2023-02-02T04:37:54;94197.63;;;1.36;100.00
11049;BME280;5577;42.706;23.160;2023-02-02T04:40:39;94162.22;;;1.03;100.00
11049;BME280;5577;42.706;23.160;2023-02-02T04:43:23;94194.31;;;1.17;100.00
11049;BME280;5577;42.706;23.160;2023-02-02T04:46:07;94202.72;;;1.28;100.00
11049;BME280;5577;42.706;23.160;2023-02-02T04:48:51;94156.50;;;1.01;100.00
11049;BME280;5577;42.706;23.160;2023-02-02T04:51:35;94195.78;;;1.23;100.00
11049;BME280;5577;42.706;23.160;2023-02-02T04:54:19;94182.69;;;1.10;100.00
11049;BME280;5577;42.706;23.160;2023-02-02T04:57:03;94190.47;;;1.28;100.00
11049;BME280;5577;42.706;23.160;2023-02-02T04:59:46;94187.59;;;1.43;100.00
11049;BME280;5577;42.706;23.160;2023-02-02T05:02:34;94192.91;;;1.52;100.00
11049;BME280;5577;42.706;23.160;2023-02-02T05:05:19;94080.31;;;0.91;100.00
11049;BME280;5577;42.706;23.160;2023-02-02T05:08:03;94192.06;;;1.56;100.00
11049;BME280;5577;42.706;23.160;2023-02-02T05:10:48;94207.09;;;1.46;100.00
11049;BME280;5577;42.706;23.160;2023-02-02T05:13:33;94204.50;;;1.46;100.00
11049;BME280;5577;42.706;23.160;2023-02-02T05:16:18;94205.28;;;1.46;100.00
11049;BME280;5577;42.706;23.160;2023-02-02T05:19:02;94199.50;;;1.49;100.00
11049;BME280;5577;42.706;23.160;2023-02-02T05:21:46;94199.22;;;1.51;100.00
11049;BME280;5577;42.706;23.160;2023-02-02T05:24:32;94192.84;;;1.57;100.00
11049;BME280;5577;42.706;23.160;2023-02-02T05:27:16;94199.72;;;1.66;100.00
11049;BME280;5577;42.706;23.160;2023-02-02T05:30:00;94202.03;;;1.68;100.00
11049;BME280;5577;42.706;23.160;2023-02-02T05:32:45;94191.84;;;1.53;100.00
11049;BME280;5577;42.706;23.160;2023-02-02T05:35:29;94208.41;;;1.62;100.00
11049;BME280;5577;42.706;23.160;2023-02-02T05:38:13;94201.53;;;1.66;100.00
11049;BME280;5577;42.706;23.160;2023-02-02T05:40:58;94206.78;;;1.79;100.00
11049;BME280;5577;42.706;23.160;2023-02-02T05:43:42;94202.25;;;1.85;100.00
11049;BME280;5577;42.706;23.160;2023-02-02T05:46:27;94203.00;;;1.85;100.00
11049;BME280;5577;42.706;23.160;2023-02-02T05:49:12;94201.19;;;1.86;100.00
11049;BME280;5577;42.706;23.160;2023-02-02T05:51:57;94202.72;;;1.87;100.00
11049;BME280;5577;42.706;23.160;2023-02-02T05:54:42;94206.78;;;1.93;100.00
11049;BME280;5577;42.706;23.160;2023-02-02T05:57:27;94181.34;;;1.71;100.00
11049;BME280;5577;42.706;23.160;2023-02-02T06:00:11;94204.75;;;1.76;100.00
11049;BME280;5577;42.706;23.160;2023-02-02T06:02:55;94221.66;;;1.65;100.00
11049;BME280;5577;42.706;23.160;2023-02-02T06:05:39;94206.19;;;1.55;100.00
11049;BME280;5577;42.706;23.160;2023-02-02T06:08:23;94199.03;;;1.61;100.00
11049;BME280;5577;42.706;23.160;2023-02-02T06:11:11;94211.41;;;1.82;100.00
11049;BME280;5577;42.706;23.160;2023-02-02T06:13:56;94185.31;;;1.69;100.00
11049;BME280;5577;42.706;23.160;2023-02-02T06:16:40;94217.69;;;1.81;100.00
11049;BME280;5577;42.706;23.160;2023-02-02T06:19:24;94211.22;;;1.79;100.00
11049;BME280;5577;42.706;23.160;2023-02-02T06:22:08;94186.38;;;1.68;100.00
11049;BME280;5577;42.706;23.160;2023-02-02T06:24:51;94226.03;;;2.10;100.00
11049;BME280;5577;42.706;23.160;2023-02-02T06:27:36;94235.31;;;2.43;100.00
11049;BME280;5577;42.706;23.160;2023-02-02T06:30:20;94237.97;;;2.65;100.00
11049;BME280;5577;42.706;23.160;2023-02-02T06:33:04;94237.72;;;2.53;100.00
11049;BME280;5577;42.706;23.160;2023-02-02T06:35:50;94247.09;;;2.54;100.00
11049;BME280;5577;42.706;23.160;2023-02-02T06:38:34;94251.16;;;2.60;100.00
11049;BME280;5577;42.706;23.160;2023-02-02T06:41:18;94259.91;;;2.78;100.00
11049;BME280;5577;42.706;23.160;2023-02-02T06:44:03;94248.75;;;2.86;100.00
11049;BME280;5577;42.706;23.160;2023-02-02T06:46:47;94246.06;;;2.77;100.00
11049;BME280;5577;42.706;23.160;2023-02-02T06:49:31;94246.75;;;2.83;100.00
11049;BME280;5577;42.706;23.160;2023-02-02T06:52:14;94258.63;;;2.89;100.00
11049;BME280;5577;42.706;23.160;2023-02-02T06:54:58;94255.63;;;2.95;100.00
11049;BME280;5577;42.706;23.160;2023-02-02T06:57:43;94224.69;;;2.75;100.00
11049;BME280;5577;42.706;23.160;2023-02-02T07:00:28;94265.25;;;3.08;100.00
11049;BME280;5577;42.706;23.160;2023-02-02T07:03:13;94168.88;;;2.58;100.00
11049;BME280;5577;42.706;23.160;2023-02-02T07:05:58;94261.25;;;3.25;100.00
11049;BME280;5577;42.706;23.160;2023-02-02T07:08:42;94263.78;;;3.38;100.00
11049;BME280;5577;42.706;23.160;2023-02-02T07:11:27;94262.38;;;3.54;100.00
11049;BME280;5577;42.706;23.160;2023-02-02T07:14:11;94265.63;;;3.60;100.00
11049;BME280;5577;42.706;23.160;2023-02-02T07:16:55;94241.69;;;3.44;100.00
11049;BME280;5577;42.706;23.160;2023-02-02T07:19:39;94254.75;;;3.66;100.00
11049;BME280;5577;42.706;23.160;2023-02-02T07:22:23;94226.69;;;3.58;98.48
11049;BME280;5577;42.706;23.160;2023-02-02T07:25:07;94255.91;;;4.13;93.73
11049;BME280;5577;42.706;23.160;2023-02-02T07:27:52;94227.97;;;4.00;91.59
11049;BME280;5577;42.706;23.160;2023-02-02T07:30:37;94256.72;;;4.30;92.69
11049;BME280;5577;42.706;23.160;2023-02-02T07:33:21;94265.63;;;4.21;92.70
11049;BME280;5577;42.706;23.160;2023-02-02T07:36:05;94266.16;;;4.31;92.44
11049;BME280;5577;42.706;23.160;2023-02-02T07:38:51;94258.75;;;4.33;92.24
11049;BME280;5577;42.706;23.160;2023-02-02T07:41:40;94256.63;;;4.35;91.00
11049;BME280;5577;42.706;23.160;2023-02-02T07:44:25;94243.88;;;4.51;86.10
11049;BME280;5577;42.706;23.160;2023-02-02T07:47:08;94236.50;;;4.70;82.80
11049;BME280;5577;42.706;23.160;2023-02-02T07:49:52;94240.78;;;4.57;83.17
11049;BME280;5577;42.706;23.160;2023-02-02T07:52:36;94243.25;;;4.54;83.83
11049;BME280;5577;42.706;23.160;2023-02-02T07:55:20;94226.97;;;4.91;82.89
11049;BME280;5577;42.706;23.160;2023-02-02T07:58:04;94230.50;;;5.46;78.42
11049;BME280;5577;42.706;23.160;2023-02-02T08:00:50;94239.25;;;5.75;75.58
11049;BME280;5577;42.706;23.160;2023-02-02T08:03:35;94246.53;;;5.78;73.58
11049;BME280;5577;42.706;23.160;2023-02-02T08:06:26;94241.41;;;5.73;73.96
11049;BME280;5577;42.706;23.160;2023-02-02T08:09:14;94237.13;;;5.60;73.35
11049;BME280;5577;42.706;23.160;2023-02-02T08:11:58;94229.59;;;5.25;74.74
11049;BME280;5577;42.706;23.160;2023-02-02T08:14:44;94225.56;;;5.10;76.53
11049;BME280;5577;42.706;23.160;2023-02-02T08:17:28;94223.13;;;5.14;77.23
11049;BME280;5577;42.706;23.160;2023-02-02T08:20:12;94192.38;;;5.23;75.15
11049;BME280;5577;42.706;23.160;2023-02-02T08:22:56;94226.75;;;5.72;74.02
11049;BME280;5577;42.706;23.160;2023-02-02T08:25:40;94219.28;;;6.00;73.00
11049;BME280;5577;42.706;23.160;2023-02-02T08:28:25;94228.28;;;6.28;71.61
11049;BME280;5577;42.706;23.160;2023-02-02T08:31:18;94215.81;;;6.54;69.41
11049;BME280;5577;42.706;23.160;2023-02-02T08:34:03;94210.81;;;6.61;69.86
11049;BME280;5577;42.706;23.160;2023-02-02T08:36:47;94205.19;;;6.71;69.84
11049;BME280;5577;42.706;23.160;2023-02-02T08:39:31;94202.59;;;6.63;68.66
11049;BME280;5577;42.706;23.160;2023-02-02T08:42:15;94202.06;;;6.49;68.23
11049;BME280;5577;42.706;23.160;2023-02-02T08:44:59;94202.31;;;6.27;69.48
11049;BME280;5577;42.706;23.160;2023-02-02T08:47:43;94184.94;;;6.63;67.93
11049;BME280;5577;42.706;23.160;2023-02-02T08:50:27;94189.34;;;7.98;63.80
11049;BME280;5577;42.706;23.160;2023-02-02T08:53:11;94170.47;;;8.68;60.07
11049;BME280;5577;42.706;23.160;2023-02-02T08:56:09;94179.59;;;8.82;56.42
11049;BME280;5577;42.706;23.160;2023-02-02T08:58:55;94152.84;;;8.84;58.48
11049;BME280;5577;42.706;23.160;2023-02-02T09:01:45;94162.22;;;9.49;55.43
11049;BME280;5577;42.706;23.160;2023-02-02T09:04:29;94168.13;;;8.91;56.59
11049;BME280;5577;42.706;23.160;2023-02-02T09:07:13;94157.25;;;8.80;57.89
11049;BME280;5577;42.706;23.160;2023-02-02T09:09:57;94174.56;;;9.60;55.90
11049;BME280;5577;42.706;23.160;2023-02-02T09:12:41;94165.72;;;8.86;57.39
11049;BME280;5577;42.706;23.160;2023-02-02T09:15:25;94167.75;;;9.59;56.24
11049;BME280;5577;42.706;23.160;2023-02-02T09:18:09;94157.88;;;9.29;56.04
11049;BME280;5577;42.706;23.160;2023-02-02T09:20:53;94155.44;;;9.79;54.71
11049;BME280;5577;42.706;23.160;2023-02-02T09:23:39;94148.06;;;10.65;52.87
11049;BME280;5577;42.706;23.160;2023-02-02T09:26:27;94143.59;;;10.50;51.75
11049;BME280;5577;42.706;23.160;2023-02-02T09:29:14;94146.09;;;10.28;52.74
11049;BME280;5577;42.706;23.160;2023-02-02T09:31:58;94125.88;;;11.84;50.12
11049;BME280;5577;42.706;23.160;2023-02-02T09:34:42;94138.38;;;11.64;48.29
11049;BME280;5577;42.706;23.160;2023-02-02T09:37:26;94136.16;;;11.28;48.71
11049;BME280;5577;42.706;23.160;2023-02-02T09:40:16;94151.38;;;10.78;50.46
11049;BME280;5577;42.706;23.160;2023-02-02T09:49:32;94126.97;;;12.06;46.23
11049;BME280;5577;42.706;23.160;2023-02-02T09:55:47;94119.13;;;11.90;48.07
11049;BME280;5577;42.706;23.160;2023-02-02T09:58:47;94110.88;;;12.44;47.05
11049;BME280;5577;42.706;23.160;2023-02-02T10:01:37;94100.47;;;10.84;48.43
11049;BME280;5577;42.706;23.160;2023-02-02T10:07:16;94106.44;;;11.38;47.92
11049;BME280;5577;42.706;23.160;2023-02-02T10:10:10;94095.66;;;10.55;50.19
11049;BME280;5577;42.706;23.160;2023-02-02T10:18:41;94078.69;;;11.32;49.01
11049;BME280;5577;42.706;23.160;2023-02-02T10:21:40;94078.13;;;11.84;48.43
11049;BME280;5577;42.706;23.160;2023-02-02T10:24:28;94067.56;;;12.14;44.94
11049;BME280;5577;42.706;23.160;2023-02-02T10:27:14;94083.81;;;13.49;44.84
11049;BME280;5577;42.706;23.160;2023-02-02T10:30:00;94079.78;;;13.66;42.43
11049;BME280;5577;42.706;23.160;2023-02-02T10:32:48;94046.09;;;11.74;45.04
11049;BME280;5577;42.706;23.160;2023-02-02T10:36:05;94073.56;;;9.98;48.29
11049;BME280;5577;42.706;23.160;2023-02-02T10:39:09;94057.38;;;12.42;44.43
11049;BME280;5577;42.706;23.160;2023-02-02T10:42:09;94070.38;;;10.23;48.12
11049;BME280;5577;42.706;23.160;2023-02-02T10:47:44;94037.41;;;13.10;43.43
11049;BME280;5577;42.706;23.160;2023-02-02T10:50:28;94004.59;;;14.23;41.22
11049;BME280;5577;42.706;23.160;2023-02-02T10:53:14;93991.75;;;13.85;40.39
11049;BME280;5577;42.706;23.160;2023-02-02T10:56:03;94006.22;;;13.87;40.89
11049;BME280;5577;42.706;23.160;2023-02-02T10:59:09;93969.81;;;14.63;39.29
11049;BME280;5577;42.706;23.160;2023-02-02T11:01:54;94008.38;;;12.36;42.74
11049;BME280;5577;42.706;23.160;2023-02-02T11:04:38;94020.28;;;12.75;42.97
11049;BME280;5577;42.706;23.160;2023-02-02T11:07:41;94024.03;;;13.40;41.82
11049;BME280;5577;42.706;23.160;2023-02-02T11:10:25;93995.97;;;13.42;40.77
11049;BME280;5577;42.706;23.160;2023-02-02T11:13:30;94013.56;;;12.84;42.32
11049;BME280;5577;42.706;23.160;2023-02-02T11:18:59;94015.47;;;14.55;39.42
11049;BME280;5577;42.706;23.160;2023-02-02T11:21:54;94019.56;;;14.42;39.42
11049;BME280;5577;42.706;23.160;2023-02-02T11:24:46;94013.69;;;14.83;39.39
11049;BME280;5577;42.706;23.160;2023-02-02T11:27:38;93971.91;;;15.29;37.83
11049;BME280;5577;42.706;23.160;2023-02-02T11:30:31;93993.41;;;13.53;40.12
11049;BME280;5577;42.706;23.160;2023-02-02T11:33:29;93999.69;;;13.34;40.11
11049;BME280;5577;42.706;23.160;2023-02-02T11:36:19;93984.81;;;12.93;40.54
11049;BME280;5577;42.706;23.160;2023-02-02T11:39:20;93982.66;;;15.99;37.36
11049;BME280;5577;42.706;23.160;2023-02-02T11:42:25;93986.38;;;12.35;40.95
11049;BME280;5577;42.706;23.160;2023-02-02T11:45:14;93987.72;;;11.47;42.16
11049;BME280;5577;42.706;23.160;2023-02-02T11:48:25;93989.97;;;9.93;44.29
11049;BME280;5577;42.706;23.160;2023-02-02T11:51:21;93955.44;;;8.77;47.30
11049;BME280;5577;42.706;23.160;2023-02-02T11:54:16;93990.22;;;8.79;48.48
11049;BME280;5577;42.706;23.160;2023-02-02T11:57:04;93975.47;;;11.62;43.22
11049;BME280;5577;42.706;23.160;2023-02-02T12:02:51;93972.56;;;10.08;44.92
11049;BME280;5577;42.706;23.160;2023-02-02T12:05:35;93958.53;;;10.23;44.47
11049;BME280;5577;42.706;23.160;2023-02-02T12:08:20;93979.16;;;9.83;45.46
11049;BME280;5577;42.706;23.160;2023-02-02T12:11:04;93972.81;;;9.37;46.27
11049;BME280;5577;42.706;23.160;2023-02-02T12:32:24;93966.03;;;8.50;47.93
11049;BME280;5577;42.706;23.160;2023-02-02T12:44:05;93965.97;;;8.62;48.70
11049;BME280;5577;42.706;23.160;2023-02-02T12:56:17;93950.44;;;8.72;49.29
11049;BME280;5577;42.706;23.160;2023-02-02T12:59:16;93951.88;;;9.79;46.89
11049;BME280;5577;42.706;23.160;2023-02-02T13:06:14;93939.13;;;15.11;37.17
11049;BME280;5577;42.706;23.160;2023-02-02T13:11:56;93951.63;;;14.79;34.88
11049;BME280;5577;42.706;23.160;2023-02-02T13:14:47;93862.41;;;11.50;38.11
11049;BME280;5577;42.706;23.160;2023-02-02T13:17:39;93953.53;;;12.47;39.76
11049;BME280;5577;42.706;23.160;2023-02-02T13:20:37;93945.59;;;11.20;40.51
11049;BME280;5577;42.706;23.160;2023-02-02T13:23:26;93953.59;;;10.21;42.15
11049;BME280;5577;42.706;23.160;2023-02-02T13:26:17;93957.50;;;10.46;42.72
11049;BME280;5577;42.706;23.160;2023-02-02T13:34:54;93943.06;;;9.25;45.18
11049;BME280;5577;42.706;23.160;2023-02-02T13:38:13;93946.03;;;8.92;45.85
11049;BME280;5577;42.706;23.160;2023-02-02T13:41:00;93947.38;;;10.14;44.23
11049;BME280;5577;42.706;23.160;2023-02-02T13:49:47;93962.28;;;8.11;61.30
11049;BME280;5577;42.706;23.160;2023-02-02T13:55:48;93937.75;;;6.87;87.36
11049;BME280;5577;42.706;23.160;2023-02-02T14:01:35;93963.50;;;6.70;100.00
11049;BME280;5577;42.706;23.160;2023-02-02T14:04:26;93947.16;;;6.64;100.00
11049;BME280;5577;42.706;23.160;2023-02-02T14:07:11;93964.34;;;6.62;100.00
11049;BME280;5577;42.706;23.160;2023-02-02T14:09:55;93725.25;;;5.11;100.00
11049;BME280;5577;42.706;23.160;2023-02-02T14:12:40;93949.41;;;6.54;100.00
11049;BME280;5577;42.706;23.160;2023-02-02T14:15:38;93971.31;;;6.78;100.00
11049;BME280;5577;42.706;23.160;2023-02-02T14:32:40;94024.88;;;5.91;100.00
11049;BME280;5577;42.706;23.160;2023-02-02T14:41:50;94071.09;;;5.09;100.00
11049;BME280;5577;42.706;23.160;2023-02-02T14:48:16;94092.59;;;4.43;100.00
11049;BME280;5577;42.706;23.160;2023-02-02T14:51:01;94127.88;;;4.28;100.00
11049;BME280;5577;42.706;23.160;2023-02-02T14:53:54;94122.88;;;4.01;100.00
11049;BME280;5577;42.706;23.160;2023-02-02T14:56:45;94083.81;;;3.57;100.00
11049;BME280;5577;42.706;23.160;2023-02-02T14:59:39;94133.69;;;3.61;100.00
11049;BME280;5577;42.706;23.160;2023-02-02T15:08:19;94164.69;;;3.15;100.00
11049;BME280;5577;42.706;23.160;2023-02-02T15:11:07;94184.25;;;2.95;100.00
11049;BME280;5577;42.706;23.160;2023-02-02T15:14:19;94204.84;;;2.74;100.00
11049;BME280;5577;42.706;23.160;2023-02-02T15:20:23;94213.72;;;2.38;100.00
11049;BME280;5577;42.706;23.160;2023-02-02T15:23:29;94207.94;;;2.27;100.00
11049;BME280;5577;42.706;23.160;2023-02-02T15:26:27;94204.94;;;2.20;100.00
11049;BME280;5577;42.706;23.160;2023-02-02T15:29:31;94210.81;;;2.26;100.00
11049;BME280;5577;42.706;23.160;2023-02-02T15:32:21;94207.97;;;2.00;100.00
11049;BME280;5577;42.706;23.160;2023-02-02T15:35:10;94210.56;;;2.00;100.00
11049;BME280;5577;42.706;23.160;2023-02-02T15:37:59;94212.19;;;1.96;100.00
11049;BME280;5577;42.706;23.160;2023-02-02T15:40:44;94206.78;;;1.93;100.00
11049;BME280;5577;42.706;23.160;2023-02-02T15:43:28;94218.59;;;1.90;100.00
11049;BME280;5577;42.706;23.160;2023-02-02T15:46:16;94223.13;;;1.98;100.00
11049;BME280;5577;42.706;23.160;2023-02-02T15:52:12;94216.72;;;1.91;100.00
11049;BME280;5577;42.706;23.160;2023-02-02T15:54:58;94231.94;;;1.89;100.00
11049;BME280;5577;42.706;23.160;2023-02-02T15:57:43;94247.78;;;1.92;100.00
11049;BME280;5577;42.706;23.160;2023-02-02T16:00:33;94240.03;;;2.01;100.00
11049;BME280;5577;42.706;23.160;2023-02-02T16:03:22;94218.59;;;2.04;100.00
11049;BME280;5577;42.706;23.160;2023-02-02T16:06:09;94220.72;;;2.15;100.00
11049;BME280;5577;42.706;23.160;2023-02-02T16:08:53;94238.13;;;2.20;100.00
11049;BME280;5577;42.706;23.160;2023-02-02T16:11:41;94223.13;;;1.98;100.00
11049;BME280;5577;42.706;23.160;2023-02-02T16:14:27;94241.50;;;2.20;100.00
11049;BME280;5577;42.706;23.160;2023-02-02T16:17:22;94254.94;;;2.14;100.00
11049;BME280;5577;42.706;23.160;2023-02-02T16:20:14;94247.19;;;2.09;100.00
11049;BME280;5577;42.706;23.160;2023-02-02T16:23:02;94256.19;;;2.16;100.00
11049;BME280;5577;42.706;23.160;2023-02-02T16:25:51;94251.09;;;2.11;100.00
11049;BME280;5577;42.706;23.160;2023-02-02T16:28:36;94252.91;;;2.11;100.00
11049;BME280;5577;42.706;23.160;2023-02-02T16:31:20;94242.38;;;1.89;100.00
11049;BME280;5577;42.706;23.160;2023-02-02T16:34:05;94249.53;;;1.97;100.00
11049;BME280;5577;42.706;23.160;2023-02-02T16:37:28;94255.72;;;2.01;100.00
11049;BME280;5577;42.706;23.160;2023-02-02T16:40:28;94257.84;;;2.12;100.00
11049;BME280;5577;42.706;23.160;2023-02-02T16:43:20;94257.75;;;2.17;100.00
11049;BME280;5577;42.706;23.160;2023-02-02T16:46:13;94262.78;;;2.14;100.00
11049;BME280;5577;42.706;23.160;2023-02-02T16:48:59;94259.31;;;2.18;100.00
11049;BME280;5577;42.706;23.160;2023-02-02T16:51:45;94229.22;;;1.94;100.00
11049;BME280;5577;42.706;23.160;2023-02-02T16:54:30;94258.72;;;2.08;100.00
11049;BME280;5577;42.706;23.160;2023-02-02T16:57:21;94268.88;;;2.09;100.00
11049;BME280;5577;42.706;23.160;2023-02-02T17:00:06;94266.19;;;2.14;100.00
11049;BME280;5577;42.706;23.160;2023-02-02T17:03:03;94266.34;;;2.18;100.00
11049;BME280;5577;42.706;23.160;2023-02-02T17:05:51;94205.69;;;1.67;100.00
11049;BME280;5577;42.706;23.160;2023-02-02T17:08:38;94299.25;;;2.32;100.00